createdAt,value
2023-01-15T00:02:17.301Z,101069.91
2023-01-15T00:05:45.247Z,101070.10
2023-01-15T00:08:53.990Z,101069.46
2023-01-15T00:12:20.003Z,101074.34
2023-01-15T00:15:07.871Z,101074.25
2023-01-15T00:18:17.896Z,101074.29
2023-01-15T00:21:25.722Z,101075.56
2023-01-15T00:24:53.367Z,101072.95
2023-01-15T00:28:16.997Z,101073.75
2023-01-15T00:31:44.770Z,101069.33
2023-01-15T00:35:12.308Z,101066.41
2023-01-15T00:38:40.034Z,101059.35
2023-01-15T00:42:07.749Z,101057.96
2023-01-15T00:44:57.080Z,101061.19
2023-01-15T00:48:04.818Z,101061.70
2023-01-15T00:51:13.101Z,101056.46
2023-01-15T00:54:40.901Z,101056.07
2023-01-15T00:58:08.797Z,101057.75
2023-01-15T01:01:01.102Z,101051.27
2023-01-15T01:04:29.000Z,101045.65
2023-01-15T01:07:56.906Z,101048.89
2023-01-15T01:11:25.025Z,101043.53
2023-01-15T01:14:54.211Z,101029.45
2023-01-15T01:18:22.081Z,101027.16
2023-01-15T01:21:17.624Z,101024.83
2023-01-15T01:24:45.351Z,101026.46
2023-01-15T01:27:53.304Z,101020.95
2023-01-15T01:31:02.287Z,101018.98
2023-01-15T01:34:30.128Z,101021.84
2023-01-15T01:37:19.257Z,101015.88
2023-01-15T01:40:47.419Z,101016.80
2023-01-15T01:44:10.689Z,101012.54
2023-01-15T01:47:38.820Z,101013.86
2023-01-15T01:51:07.120Z,101007.56
2023-01-15T01:54:34.834Z,100998.21
2023-01-15T01:57:24.005Z,100989.80
2023-01-15T02:00:52.123Z,100987.05
2023-01-15T02:04:19.656Z,100980.95
2023-01-15T02:07:47.230Z,100975.98
2023-01-15T02:11:15.057Z,100976.45
2023-01-15T02:14:24.240Z,100974.56
2023-01-15T02:17:52.027Z,100976.41
2023-01-15T02:20:22.253Z,100981.39
2023-01-15T02:23:37.807Z,100979.98
2023-01-15T02:27:05.674Z,100980.58
2023-01-15T02:30:34.022Z,100974.17
2023-01-15T02:33:43.298Z,100970.77
2023-01-15T02:36:55.325Z,100969.59
2023-01-15T02:40:23.153Z,100966.73
2023-01-15T02:43:32.193Z,100964.80
2023-01-15T02:46:21.354Z,100961.67
2023-01-15T02:49:49.149Z,100962.06
2023-01-15T02:53:16.797Z,100965.04
2023-01-15T02:56:05.467Z,100966.36
2023-01-15T02:59:14.220Z,100968.42
2023-01-15T03:02:41.806Z,100963.98
2023-01-15T03:06:09.486Z,100963.38
2023-01-15T03:09:40.044Z,100960.70
2023-01-15T03:13:08.645Z,100959.05
2023-01-15T03:16:05.855Z,100955.95
2023-01-15T03:19:17.855Z,100957.98
2023-01-15T03:22:49.155Z,100966.89
2023-01-15T03:26:17.244Z,100966.80
2023-01-15T03:29:08.507Z,100961.45
2023-01-15T03:32:36.796Z,100961.41
2023-01-15T03:36:04.531Z,100963.33
2023-01-15T03:39:32.715Z,100960.69
2023-01-15T03:43:00.225Z,100959.67
2023-01-15T03:46:27.768Z,100958.96
2023-01-15T03:49:51.100Z,100958.04
2023-01-15T03:52:59.835Z,100951.81
2023-01-15T03:56:27.586Z,100946.67
2023-01-15T03:59:55.623Z,100936.00
2023-01-15T04:03:03.265Z,100936.61
2023-01-15T04:06:30.883Z,100920.63
2023-01-15T04:09:58.609Z,100922.94
2023-01-15T04:13:26.233Z,100924.33
2023-01-15T04:16:15.402Z,100921.89
2023-01-15T04:19:42.995Z,100916.65
2023-01-15T04:23:10.883Z,100918.70
2023-01-15T04:26:38.876Z,100918.30
2023-01-15T04:30:06.653Z,100913.27
2023-01-15T04:33:34.442Z,100915.23
2023-01-15T04:37:02.087Z,100916.27
2023-01-15T04:40:29.757Z,100912.73
2023-01-15T04:43:38.347Z,100910.35
2023-01-15T04:46:47.175Z,100909.14
2023-01-15T04:50:14.944Z,100906.66
2023-01-15T04:53:43.107Z,100909.50
2023-01-15T04:57:11.019Z,100912.67
2023-01-15T05:00:38.945Z,100907.73
2023-01-15T05:04:06.535Z,100902.88
2023-01-15T05:07:15.324Z,100896.50
2023-01-15T05:10:43.150Z,100892.82
2023-01-15T05:14:11.060Z,100902.09
2023-01-15T05:17:38.778Z,100902.69
2023-01-15T05:21:06.589Z,100899.27
2023-01-15T05:24:34.368Z,100903.73
2023-01-15T05:28:02.316Z,100904.13
2023-01-15T05:31:10.515Z,100902.40
2023-01-15T05:34:38.004Z,100909.98
2023-01-15T05:38:05.635Z,100912.56
2023-01-15T05:41:33.844Z,100910.45
2023-01-15T05:45:01.563Z,100914.69
2023-01-15T05:48:29.227Z,100921.29
2023-01-15T05:51:57.112Z,100916.77
2023-01-15T05:55:24.846Z,100913.32
2023-01-15T05:58:52.647Z,100911.52
2023-01-15T06:02:20.571Z,100902.90
2023-01-15T06:05:48.363Z,100902.95
2023-01-15T06:09:16.098Z,100908.10
2023-01-15T06:12:05.030Z,100908.35
2023-01-15T06:15:13.574Z,100906.58
2023-01-15T06:18:41.292Z,100908.24
2023-01-15T06:22:10.935Z,100900.07
2023-01-15T06:25:36.942Z,100894.19
2023-01-15T06:29:04.609Z,100889.20
2023-01-15T06:32:32.378Z,100888.11
2023-01-15T06:36:00.141Z,100881.92
2023-01-15T06:39:28.003Z,100879.63
2023-01-15T06:42:55.868Z,100874.80
2023-01-15T06:46:23.887Z,100869.27
2023-01-15T06:49:51.446Z,100864.52
2023-01-15T06:52:59.211Z,100861.04
2023-01-15T06:56:08.016Z,100856.77
2023-01-15T06:59:35.976Z,100853.33
2023-01-15T07:03:03.766Z,100852.97
2023-01-15T07:06:13.441Z,100850.34
2023-01-15T07:09:22.288Z,100849.42
2023-01-15T07:12:49.915Z,100851.52
2023-01-15T07:16:17.531Z,100850.11
2023-01-15T07:19:45.143Z,100846.23
2023-01-15T07:23:12.730Z,100845.59
2023-01-15T07:26:40.625Z,100844.48
2023-01-15T07:30:08.585Z,100839.99
2023-01-15T07:33:36.339Z,100838.08
2023-01-15T07:37:03.968Z,100835.59
2023-01-15T07:40:31.655Z,100831.73
2023-01-15T07:43:59.420Z,100829.79
2023-01-15T07:47:27.067Z,100827.59
2023-01-15T07:50:54.604Z,100815.93
2023-01-15T07:54:22.207Z,100812.73
2023-01-15T07:57:30.966Z,100815.64
2023-01-15T08:00:58.875Z,100813.51
2023-01-15T08:04:26.801Z,100814.58
2023-01-15T08:07:54.629Z,100818.05
2023-01-15T08:11:22.449Z,100810.25
2023-01-15T08:14:50.351Z,100807.29
2023-01-15T08:18:18.060Z,100798.52
2023-01-15T08:21:45.630Z,100798.92
2023-01-15T08:24:54.290Z,100801.73
2023-01-15T08:28:22.036Z,100801.21
2023-01-15T08:31:12.182Z,100796.58
2023-01-15T08:34:39.792Z,100787.69
2023-01-15T08:38:07.633Z,100785.41
2023-01-15T08:41:35.382Z,100788.33
2023-01-15T08:45:03.014Z,100783.95
2023-01-15T08:48:30.736Z,100776.66
2023-01-15T08:51:58.617Z,100774.54
2023-01-15T08:54:47.452Z,100770.76
2023-01-15T08:58:15.353Z,100765.55
2023-01-15T09:01:43.370Z,100768.08
2023-01-15T09:05:11.153Z,100766.42
2023-01-15T09:08:39.033Z,100760.31
2023-01-15T09:12:06.928Z,100761.73
2023-01-15T09:15:34.600Z,100754.58
2023-01-15T09:19:02.299Z,100749.92
2023-01-15T09:22:30.144Z,100746.07
2023-01-15T09:25:57.696Z,100735.67
2023-01-15T09:29:25.276Z,100734.55
2023-01-15T09:32:53.088Z,100729.45
2023-01-15T09:36:20.881Z,100724.79
2023-01-15T09:39:48.787Z,100718.20
2023-01-15T09:43:16.487Z,100717.70
2023-01-15T09:46:44.069Z,100716.55
2023-01-15T09:50:11.700Z,100708.02
2023-01-15T09:53:41.520Z,100703.42
2023-01-15T09:57:09.513Z,100704.80
2023-01-15T10:00:18.257Z,100699.98
2023-01-15T10:03:46.174Z,100692.70
2023-01-15T10:07:13.773Z,100688.58
2023-01-15T10:10:41.626Z,100687.03
2023-01-15T10:14:09.480Z,100682.56
2023-01-15T10:17:37.180Z,100669.52
2023-01-15T10:21:05.055Z,100670.20
2023-01-15T10:24:32.833Z,100658.02
2023-01-15T10:28:00.568Z,100652.51
2023-01-15T10:31:35.941Z,100641.11
2023-01-15T10:35:04.316Z,100634.89
2023-01-15T10:38:32.230Z,100627.73
2023-01-15T10:42:00.113Z,100619.38
2023-01-15T10:45:12.354Z,100614.04
2023-01-15T10:48:40.170Z,100604.80
2023-01-15T10:52:08.091Z,100592.95
2023-01-15T10:55:35.986Z,100588.27
2023-01-15T10:59:03.847Z,100575.95
2023-01-15T11:01:54.173Z,100568.35
2023-01-15T11:05:21.912Z,100556.02
2023-01-15T11:12:17.532Z,100541.05
2023-01-15T11:15:46.475Z,100539.84
2023-01-15T11:19:15.312Z,100531.77
2023-01-15T11:22:31.149Z,100530.90
2023-01-15T11:25:58.880Z,100524.04
2023-01-15T11:29:26.708Z,100515.79
2023-01-15T11:32:54.692Z,100506.45
2023-01-15T11:36:22.480Z,100503.30
2023-01-15T11:39:50.304Z,100492.55
2023-01-15T11:43:18.220Z,100484.34
2023-01-15T11:46:46.194Z,100484.80
2023-01-15T11:50:14.140Z,100481.49
2023-01-15T11:53:41.742Z,100472.84
2023-01-15T11:57:09.439Z,100466.80
2023-01-15T12:00:37.480Z,100454.08
2023-01-15T12:03:47.111Z,100455.58
2023-01-15T12:07:14.727Z,100451.77
2023-01-15T12:10:42.703Z,100448.23
2023-01-15T12:14:10.397Z,100433.91
2023-01-15T12:17:38.274Z,100431.61
2023-01-15T12:21:06.010Z,100428.13
2023-01-15T12:24:10.521Z,100417.49
2023-01-15T12:27:38.485Z,100416.83
2023-01-15T12:31:06.332Z,100411.50
2023-01-15T12:34:34.468Z,100406.59
2023-01-15T12:38:02.379Z,100407.43
2023-01-15T12:41:30.429Z,100390.92
2023-01-15T12:44:58.460Z,100378.36
2023-01-15T12:48:26.504Z,100371.16
2023-01-15T12:51:38.344Z,100359.85
2023-01-15T12:54:48.469Z,100343.54
2023-01-15T12:58:16.555Z,100339.24
2023-01-15T13:01:44.888Z,100333.27
2023-01-15T13:04:34.329Z,100330.83
2023-01-15T13:08:02.067Z,100327.16
2023-01-15T13:11:29.997Z,100336.30
2023-01-15T13:14:57.718Z,100341.12
2023-01-15T13:18:25.661Z,100345.04
2023-01-15T13:21:53.405Z,100342.56
2023-01-15T13:25:21.069Z,100343.75
2023-01-15T13:28:48.695Z,100334.60
2023-01-15T13:32:16.347Z,100343.39
2023-01-15T13:35:05.133Z,100328.00
2023-01-15T13:38:32.720Z,100326.44
2023-01-15T13:42:00.993Z,100319.84
2023-01-15T13:45:28.741Z,100319.44
2023-01-15T13:48:56.587Z,100319.42
2023-01-15T13:52:24.541Z,100319.98
2023-01-15T13:55:07.417Z,100329.45
2023-01-15T14:01:31.879Z,100329.15
2023-01-15T14:05:00.938Z,100325.04
2023-01-15T14:07:49.767Z,100319.10
2023-01-15T14:11:17.732Z,100312.13
2023-01-15T14:14:06.566Z,100310.45
2023-01-15T14:17:34.328Z,100307.35
2023-01-15T14:21:02.064Z,100307.36
2023-01-15T14:24:29.822Z,100303.14
2023-01-15T14:27:57.765Z,100300.80
2023-01-15T14:31:25.700Z,100294.42
2023-01-15T14:34:53.294Z,100293.12
2023-01-15T14:38:21.392Z,100295.58
2023-01-15T14:41:49.013Z,100302.91
2023-01-15T14:45:16.729Z,100296.20
2023-01-15T14:48:44.565Z,100292.91
2023-01-15T14:52:12.351Z,100289.57
2023-01-15T14:55:40.027Z,100289.22
2023-01-15T14:59:07.743Z,100293.75
2023-01-15T15:02:35.647Z,100291.40
2023-01-15T15:06:03.423Z,100294.32
2023-01-15T15:09:31.252Z,100296.13
2023-01-15T15:12:59.120Z,100306.17
2023-01-15T15:16:27.066Z,100303.59
2023-01-15T15:19:54.780Z,100299.51
2023-01-15T15:23:22.519Z,100292.67
2023-01-15T15:26:50.339Z,100286.39
2023-01-15T15:30:17.972Z,100283.14
2023-01-15T15:33:26.533Z,100273.95
2023-01-15T15:36:54.664Z,100272.73
2023-01-15T15:40:22.749Z,100272.05
2023-01-15T15:43:50.524Z,100269.48
2023-01-15T15:47:18.473Z,100262.38
2023-01-15T15:50:46.419Z,100267.25
2023-01-15T15:54:14.268Z,100270.77
2023-01-15T15:57:42.172Z,100277.95
2023-01-15T16:01:10.083Z,100276.23
2023-01-15T16:04:38.132Z,100272.68
2023-01-15T16:07:46.339Z,100276.51
2023-01-15T16:11:14.010Z,100280.86
2023-01-15T16:14:41.830Z,100284.59
2023-01-15T16:18:09.705Z,100281.90
2023-01-15T16:21:37.581Z,100273.57
2023-01-15T16:24:46.707Z,100277.23
2023-01-15T16:28:14.395Z,100268.95
2023-01-15T16:31:42.371Z,100270.52
2023-01-15T16:34:51.004Z,100271.96
2023-01-15T16:37:39.760Z,100270.73
2023-01-15T16:41:09.883Z,100276.46
2023-01-15T16:44:37.722Z,100281.37
2023-01-15T16:48:05.486Z,100275.78
2023-01-15T16:51:33.435Z,100265.08
2023-01-15T16:55:01.557Z,100258.40
2023-01-15T16:58:29.692Z,100249.48
2023-01-15T17:01:57.517Z,100240.08
2023-01-15T17:05:25.249Z,100235.08
2023-01-15T17:08:52.843Z,100245.19
2023-01-15T17:12:20.633Z,100246.50
2023-01-15T17:15:48.476Z,100247.04
2023-01-15T17:18:56.849Z,100245.38
2023-01-15T17:22:24.761Z,100252.21
2023-01-15T17:25:52.526Z,100255.52
2023-01-15T17:29:20.231Z,100250.47
2023-01-15T17:32:48.463Z,100250.13
2023-01-15T17:35:57.119Z,100248.23
2023-01-15T17:39:24.921Z,100253.09
2023-01-15T17:42:52.706Z,100254.41
2023-01-15T17:46:20.655Z,100253.09
2023-01-15T17:49:29.714Z,100254.88
2023-01-15T17:52:57.665Z,100253.39
2023-01-15T17:56:25.361Z,100255.02
2023-01-15T18:00:02.802Z,100250.31
2023-01-15T18:02:59.959Z,100246.88
2023-01-15T18:06:27.550Z,100245.87
2023-01-15T18:09:55.335Z,100248.22
2023-01-15T18:13:22.995Z,100252.45
2023-01-15T18:16:30.952Z,100256.45
2023-01-15T18:19:58.604Z,100255.46
2023-01-15T18:23:26.749Z,100249.98
2023-01-15T18:26:54.762Z,100253.40
2023-01-15T18:30:22.497Z,100248.75
2023-01-15T18:33:31.328Z,100245.97
2023-01-15T18:36:59.211Z,100244.22
2023-01-15T18:40:14.876Z,100233.55
2023-01-15T18:43:42.766Z,100224.98
2023-01-15T18:47:10.576Z,100227.11
2023-01-15T18:50:38.367Z,100230.71
2023-01-15T18:54:06.426Z,100229.23
2023-01-15T18:57:34.322Z,100223.77
2023-01-15T19:00:43.317Z,100224.42
2023-01-15T19:04:11.539Z,100232.36
2023-01-15T19:07:39.270Z,100233.69
2023-01-15T19:11:07.053Z,100221.25
2023-01-15T19:14:34.954Z,100218.42
2023-01-15T19:18:02.688Z,100217.60
2023-01-15T19:21:30.339Z,100214.71
2023-01-15T19:24:56.549Z,100219.08
2023-01-15T19:28:05.002Z,100219.27
2023-01-15T19:31:13.704Z,100219.94
2023-01-15T19:34:31.663Z,100218.36
2023-01-15T19:37:31.353Z,100216.94
2023-01-15T19:40:59.554Z,100216.90
2023-01-15T19:44:27.606Z,100221.61
2023-01-15T19:47:36.030Z,100212.45
2023-01-15T19:51:03.916Z,100209.75
2023-01-15T19:54:31.680Z,100206.14
2023-01-15T19:57:39.631Z,100203.26
2023-01-15T20:01:07.486Z,100199.48
2023-01-15T20:04:16.216Z,100197.48
2023-01-15T20:07:44.181Z,100191.21
2023-01-15T20:11:12.121Z,100190.52
2023-01-15T20:14:20.464Z,100189.41
2023-01-15T20:17:48.459Z,100191.67
2023-01-15T20:21:16.190Z,100197.36
2023-01-15T20:24:44.059Z,100197.65
2023-01-15T20:28:11.955Z,100193.33
2023-01-15T20:31:39.668Z,100191.12
2023-01-15T20:35:07.872Z,100192.08
2023-01-15T20:38:35.711Z,100190.52
2023-01-15T20:42:03.475Z,100190.85
2023-01-15T20:45:31.326Z,100187.25
2023-01-15T20:48:40.043Z,100187.42
2023-01-15T20:52:07.493Z,100191.73
2023-01-15T20:55:45.682Z,100188.99
2023-01-15T20:59:03.173Z,100197.41
2023-01-15T21:01:54.710Z,100189.15
2023-01-15T21:05:19.958Z,100190.88
2023-01-15T21:08:47.774Z,100192.67
2023-01-15T21:11:55.998Z,100190.26
2023-01-15T21:15:24.165Z,100180.02
2023-01-15T21:18:51.930Z,100174.06
2023-01-15T21:22:19.567Z,100172.40
2023-01-15T21:25:47.195Z,100171.63
2023-01-15T21:29:15.249Z,100166.63
2023-01-15T21:32:42.939Z,100161.80
2023-01-15T21:35:51.973Z,100161.22
2023-01-15T21:39:20.843Z,100166.67
2023-01-15T21:42:48.624Z,100170.33
2023-01-15T21:46:16.295Z,100169.30
2023-01-15T21:49:44.016Z,100166.14
2023-01-15T21:53:11.756Z,100167.91
2023-01-15T21:56:39.628Z,100167.12
2023-01-15T22:00:07.590Z,100167.45
2023-01-15T22:03:35.218Z,100162.70
2023-01-15T22:06:43.318Z,100162.48
2023-01-15T22:09:32.225Z,100164.20
2023-01-15T22:13:00.166Z,100161.83
2023-01-15T22:16:28.060Z,100159.87
2023-01-15T22:19:55.711Z,100158.61
2023-01-15T22:23:23.443Z,100157.92
2023-01-15T22:26:51.254Z,100163.73
2023-01-15T22:30:19.113Z,100155.71
2023-01-15T22:33:47.020Z,100152.54
2023-01-15T22:37:15.204Z,100143.67
2023-01-15T22:40:43.135Z,100137.88
2023-01-15T22:43:52.000Z,100136.67
2023-01-15T22:47:19.822Z,100139.61
2023-01-15T22:50:48.149Z,100133.14
2023-01-15T22:54:19.313Z,100122.58
2023-01-15T22:57:55.058Z,100117.01
2023-01-15T23:01:23.036Z,100113.48
2023-01-15T23:04:52.352Z,100124.19
2023-01-15T23:08:18.672Z,100130.33
2023-01-15T23:11:46.482Z,100131.95
2023-01-15T23:15:14.299Z,100118.53
2023-01-15T23:18:42.180Z,100110.86
2023-01-15T23:22:10.390Z,100103.10
2023-01-15T23:25:38.264Z,100105.96
2023-01-15T23:29:06.193Z,100111.88
2023-01-15T23:32:34.195Z,100117.77
2023-01-15T23:36:01.970Z,100126.41
2023-01-15T23:39:29.652Z,100113.77
2023-01-15T23:42:57.425Z,100104.27
2023-01-15T23:46:25.297Z,100088.10
2023-01-15T23:49:53.027Z,100077.31
2023-01-15T23:53:20.847Z,100072.33
2023-01-15T23:56:48.485Z,100078.29
